createdAt,value
2022-11-15T00:02:06.344Z,21.56
2022-11-15T00:04:33.299Z,21.56
2022-11-15T00:07:00.281Z,21.50
2022-11-15T00:09:27.223Z,21.50
2022-11-15T00:11:54.131Z,21.50
2022-11-15T00:14:21.056Z,21.44
2022-11-15T00:16:47.974Z,21.44
2022-11-15T00:19:14.970Z,21.38
2022-11-15T00:21:41.880Z,21.38
2022-11-15T00:24:08.801Z,21.38
2022-11-15T00:26:35.707Z,21.31
2022-11-15T00:29:02.627Z,21.31
2022-11-15T00:31:29.571Z,21.25
2022-11-15T00:33:56.479Z,21.25
2022-11-15T00:36:23.389Z,21.25
2022-11-15T00:38:50.306Z,21.19
2022-11-15T00:41:17.219Z,21.19
2022-11-15T00:43:44.165Z,21.13
2022-11-15T00:46:11.084Z,21.13
2022-11-15T00:48:37.978Z,21.13
2022-11-15T00:51:04.890Z,21.06
2022-11-15T00:53:32.065Z,21.06
2022-11-15T00:55:59.142Z,21.00
2022-11-15T00:58:26.069Z,21.00
2022-11-15T01:00:53.043Z,21.00
2022-11-15T01:03:19.990Z,20.94
2022-11-15T01:05:46.947Z,20.94
2022-11-15T01:08:13.959Z,20.94
2022-11-15T01:10:40.879Z,20.88
2022-11-15T01:13:07.830Z,20.88
2022-11-15T01:15:34.779Z,20.88
2022-11-15T01:18:01.701Z,20.88
2022-11-15T01:20:28.701Z,20.81
2022-11-15T01:22:55.605Z,20.81
2022-11-15T01:25:22.510Z,20.81
2022-11-15T01:27:49.410Z,20.75
2022-11-15T01:30:16.323Z,20.75
2022-11-15T01:32:43.261Z,20.75
2022-11-15T01:35:10.177Z,20.69
2022-11-15T01:37:37.107Z,20.69
2022-11-15T01:40:04.006Z,20.69
2022-11-15T01:42:30.930Z,20.69
2022-11-15T01:44:57.831Z,20.63
2022-11-15T01:47:24.746Z,20.63
2022-11-15T01:49:51.678Z,20.63
2022-11-15T01:52:18.646Z,20.56
2022-11-15T01:54:45.534Z,20.56
2022-11-15T01:57:12.462Z,20.56
2022-11-15T01:59:39.392Z,20.56
2022-11-15T02:02:06.294Z,20.56
2022-11-15T02:04:33.222Z,20.50
2022-11-15T02:07:00.206Z,20.50
2022-11-15T02:09:27.166Z,20.50
2022-11-15T02:11:54.081Z,20.50
2022-11-15T02:14:21.024Z,20.44
2022-11-15T02:16:47.930Z,20.44
2022-11-15T02:19:14.893Z,20.44
2022-11-15T02:21:41.836Z,20.44
2022-11-15T02:24:08.763Z,20.38
2022-11-15T02:26:35.730Z,20.38
2022-11-15T02:29:02.643Z,20.38
2022-11-15T02:31:29.571Z,20.31
2022-11-15T02:33:56.470Z,20.31
2022-11-15T02:36:23.402Z,20.31
2022-11-15T02:38:50.311Z,20.31
2022-11-15T02:41:17.222Z,20.31
2022-11-15T02:43:44.267Z,20.31
2022-11-15T02:46:11.171Z,20.25
2022-11-15T02:48:38.099Z,20.25
2022-11-15T02:51:05.034Z,20.25
2022-11-15T02:53:32.221Z,20.25
2022-11-15T02:55:59.293Z,20.25
2022-11-15T02:58:26.227Z,20.19
2022-11-15T03:00:53.181Z,20.19
2022-11-15T03:03:20.145Z,20.19
2022-11-15T03:05:47.057Z,20.25
2022-11-15T03:08:13.974Z,20.25
2022-11-15T03:10:40.909Z,20.25
2022-11-15T03:13:07.822Z,20.31
2022-11-15T03:15:34.772Z,20.38
2022-11-15T03:18:01.681Z,20.44
2022-11-15T03:20:28.577Z,20.56
2022-11-15T03:22:55.497Z,20.63
2022-11-15T03:25:22.397Z,20.63
2022-11-15T03:27:49.334Z,20.63
2022-11-15T03:30:16.259Z,20.69
2022-11-15T03:32:43.179Z,20.69
2022-11-15T03:35:10.086Z,20.63
2022-11-15T03:37:37.001Z,20.63
2022-11-15T03:40:03.885Z,20.63
2022-11-15T03:42:30.794Z,20.63
2022-11-15T03:44:57.682Z,20.56
2022-11-15T03:47:24.688Z,20.56
2022-11-15T03:49:51.587Z,20.50
2022-11-15T03:52:18.490Z,20.50
2022-11-15T03:54:45.393Z,20.50
2022-11-15T03:57:12.313Z,20.44
2022-11-15T03:59:39.225Z,20.44
2022-11-15T04:02:06.131Z,20.44
2022-11-15T04:04:33.111Z,20.38
2022-11-15T04:07:00.086Z,20.38
2022-11-15T04:09:27.127Z,20.38
2022-11-15T04:11:54.069Z,20.31
2022-11-15T04:14:21.126Z,20.31
2022-11-15T04:16:48.039Z,20.25
2022-11-15T04:19:14.948Z,20.19
2022-11-15T04:21:41.871Z,20.19
2022-11-15T04:24:08.774Z,20.13
2022-11-15T04:26:35.703Z,20.13
2022-11-15T04:29:02.602Z,20.06
2022-11-15T04:31:29.516Z,20.06
2022-11-15T04:33:56.441Z,20.00
2022-11-15T04:36:23.406Z,20.00
2022-11-15T04:38:50.329Z,19.94
2022-11-15T04:41:17.234Z,19.88
2022-11-15T04:43:44.153Z,19.88
2022-11-15T04:46:11.070Z,19.81
2022-11-15T04:48:38.865Z,19.81
2022-11-15T04:51:05.772Z,19.75
2022-11-15T04:53:33.095Z,19.69
2022-11-15T04:56:00.196Z,19.69
2022-11-15T04:58:27.104Z,19.63
2022-11-15T05:00:54.074Z,19.63
2022-11-15T05:03:21.027Z,19.69
2022-11-15T05:05:47.941Z,19.75
2022-11-15T05:08:14.832Z,20.25
2022-11-15T05:10:41.753Z,24.50
2022-11-15T05:13:08.686Z,28.13
2022-11-15T05:15:35.583Z,28.81
2022-11-15T05:18:02.513Z,28.69
2022-11-15T05:20:29.424Z,26.31
2022-11-15T05:22:56.343Z,24.25
2022-11-15T05:25:23.282Z,25.69
2022-11-15T05:27:50.173Z,28.81
2022-11-15T05:30:17.083Z,30.25
2022-11-15T05:32:43.986Z,30.69
2022-11-15T05:35:10.898Z,28.50
2022-11-15T05:37:37.820Z,26.75
2022-11-15T05:40:04.730Z,28.56
2022-11-15T05:42:31.657Z,30.38
2022-11-15T05:44:58.551Z,31.06
2022-11-15T05:47:25.483Z,29.94
2022-11-15T05:49:52.389Z,28.00
2022-11-15T05:52:19.302Z,28.69
2022-11-15T05:54:46.215Z,30.63
2022-11-15T05:57:13.132Z,31.50
2022-11-15T05:59:40.086Z,31.25
2022-11-15T06:02:07.029Z,30.56
2022-11-15T06:04:33.948Z,30.31
2022-11-15T06:07:00.923Z,31.13
2022-11-15T06:09:27.865Z,32.13
2022-11-15T06:11:54.785Z,32.38
2022-11-15T06:14:21.704Z,31.94
2022-11-15T06:16:48.608Z,31.88
2022-11-15T06:19:15.522Z,32.56
2022-11-15T06:21:42.425Z,33.00
2022-11-15T06:24:09.361Z,33.25
2022-11-15T06:26:36.275Z,33.50
2022-11-15T06:29:03.186Z,33.69
2022-11-15T06:31:30.102Z,33.94
2022-11-15T06:33:57.021Z,34.13
2022-11-15T06:36:23.921Z,34.31
2022-11-15T06:38:50.824Z,34.50
2022-11-15T06:41:17.773Z,34.50
2022-11-15T06:43:44.688Z,34.50
2022-11-15T06:46:11.608Z,34.50
2022-11-15T06:48:38.541Z,34.56
2022-11-15T06:51:05.434Z,34.50
2022-11-15T06:53:32.592Z,34.50
2022-11-15T06:55:59.779Z,34.50
2022-11-15T06:58:26.698Z,34.56
2022-11-15T07:00:53.638Z,34.63
2022-11-15T07:03:20.592Z,34.63
2022-11-15T07:05:47.530Z,34.50
2022-11-15T07:08:14.500Z,34.31
2022-11-15T07:10:41.429Z,34.13
2022-11-15T07:13:08.326Z,34.00
2022-11-15T07:15:35.263Z,33.81
2022-11-15T07:18:02.161Z,33.69
2022-11-15T07:20:29.132Z,33.50
2022-11-15T07:22:56.076Z,33.31
2022-11-15T07:25:23.007Z,33.06
2022-11-15T07:27:50.035Z,33.25
2022-11-15T07:30:17.141Z,33.31
2022-11-15T07:32:44.059Z,33.38
2022-11-15T07:35:10.999Z,33.44
2022-11-15T07:37:37.915Z,33.50
2022-11-15T07:40:04.853Z,33.56
2022-11-15T07:42:31.762Z,33.63
2022-11-15T07:44:58.681Z,33.69
2022-11-15T07:47:25.594Z,33.75
2022-11-15T07:49:52.496Z,33.81
2022-11-15T07:52:19.399Z,33.88
2022-11-15T07:54:46.309Z,33.94
2022-11-15T07:57:13.294Z,33.88
2022-11-15T07:59:40.217Z,33.75
2022-11-15T08:02:07.211Z,33.63
2022-11-15T08:04:34.206Z,33.50
2022-11-15T08:07:01.147Z,33.44
2022-11-15T08:09:28.091Z,33.38
2022-11-15T08:11:55.070Z,33.38
2022-11-15T08:14:22.001Z,33.44
2022-11-15T08:16:48.917Z,33.44
2022-11-15T08:19:15.829Z,33.50
2022-11-15T08:21:42.739Z,33.50
2022-11-15T08:24:09.650Z,33.56
2022-11-15T08:26:36.563Z,33.69
2022-11-15T08:29:03.466Z,33.75
2022-11-15T08:31:30.370Z,33.81
2022-11-15T08:33:57.285Z,33.94
2022-11-15T08:36:24.226Z,34.00
2022-11-15T08:38:51.145Z,34.06
2022-11-15T08:41:18.059Z,34.13
2022-11-15T08:43:44.972Z,34.19
2022-11-15T08:46:11.895Z,34.25
2022-11-15T08:48:38.826Z,34.31
2022-11-15T08:51:05.730Z,34.38
2022-11-15T08:53:32.637Z,34.31
2022-11-15T08:55:59.551Z,34.25
2022-11-15T08:58:26.464Z,34.13
2022-11-15T09:00:53.404Z,34.00
2022-11-15T09:03:20.318Z,33.88
2022-11-15T09:05:47.218Z,33.75
2022-11-15T09:08:45.659Z,33.25
2022-11-15T09:11:01.047Z,33.13
2022-11-15T09:13:27.975Z,33.19
2022-11-15T09:15:54.870Z,33.19
2022-11-15T09:18:22.389Z,33.25
2022-11-15T09:20:49.419Z,33.25
2022-11-15T09:23:16.344Z,33.31
2022-11-15T09:25:43.395Z,33.25
2022-11-15T09:28:10.309Z,33.25
2022-11-15T09:30:37.278Z,33.19
2022-11-15T09:33:04.194Z,33.19
2022-11-15T09:35:31.127Z,33.19
2022-11-15T09:37:58.038Z,33.19
2022-11-15T09:40:24.964Z,33.19
2022-11-15T09:42:51.872Z,33.00
2022-11-15T09:45:18.790Z,32.94
2022-11-15T09:47:45.706Z,33.00
2022-11-15T09:50:12.760Z,33.06
2022-11-15T09:52:39.674Z,33.13
2022-11-15T09:55:06.589Z,33.19
2022-11-15T09:57:33.501Z,33.31
2022-11-15T10:00:12.270Z,33.38
2022-11-15T10:02:47.343Z,33.44
2022-11-15T10:05:14.245Z,33.56
2022-11-15T10:07:41.159Z,33.63
2022-11-15T10:10:08.067Z,33.69
2022-11-15T10:12:34.970Z,33.69
2022-11-15T10:15:01.883Z,33.56
2022-11-15T10:17:28.830Z,33.50
2022-11-15T10:19:55.739Z,33.38
2022-11-15T10:22:22.733Z,33.25
2022-11-15T10:24:49.654Z,33.13
2022-11-15T10:27:16.568Z,33.00
2022-11-15T10:29:43.458Z,32.94
2022-11-15T10:32:10.509Z,33.00
2022-11-15T10:34:37.393Z,33.00
2022-11-15T10:37:04.326Z,33.06
2022-11-15T10:39:31.242Z,33.06
2022-11-15T10:41:58.141Z,33.13
2022-11-15T10:44:25.054Z,33.19
2022-11-15T10:46:51.988Z,33.19
2022-11-15T10:49:18.905Z,33.31
2022-11-15T10:51:45.804Z,33.31
2022-11-15T10:54:15.890Z,33.31
2022-11-15T10:56:45.414Z,33.25
2022-11-15T10:59:12.352Z,33.13
2022-11-15T11:01:39.295Z,33.06
2022-11-15T11:04:06.261Z,33.00
2022-11-15T11:06:33.158Z,33.00
2022-11-15T11:09:00.086Z,32.81
2022-11-15T11:11:27.043Z,32.50
2022-11-15T11:13:53.962Z,32.69
2022-11-15T11:16:20.906Z,32.88
2022-11-15T11:18:47.906Z,33.00
2022-11-15T11:21:14.813Z,33.13
2022-11-15T11:23:41.707Z,33.19
2022-11-15T11:26:08.628Z,33.31
2022-11-15T11:28:35.542Z,33.44
2022-11-15T11:31:02.461Z,33.50
2022-11-15T11:33:29.412Z,33.63
2022-11-15T11:35:56.337Z,33.69
2022-11-15T11:38:23.291Z,33.69
2022-11-15T11:40:50.198Z,33.69
2022-11-15T11:43:17.093Z,33.56
2022-11-15T11:45:47.344Z,33.50
2022-11-15T11:48:14.519Z,33.44
2022-11-15T11:50:41.419Z,33.31
2022-11-15T11:53:08.371Z,33.19
2022-11-15T11:55:35.287Z,33.13
2022-11-15T11:58:02.208Z,33.13
2022-11-15T12:00:29.165Z,33.13
2022-11-15T12:02:56.163Z,33.13
2022-11-15T12:05:23.186Z,33.13
2022-11-15T12:07:50.093Z,33.19
2022-11-15T12:10:16.998Z,33.25
2022-11-15T12:12:43.895Z,33.25
2022-11-15T12:15:10.790Z,33.31
2022-11-15T12:17:37.703Z,33.31
2022-11-15T12:20:04.613Z,33.25
2022-11-15T12:22:31.549Z,33.13
2022-11-15T12:24:58.484Z,33.00
2022-11-15T12:27:26.885Z,32.88
2022-11-15T12:29:53.986Z,32.88
2022-11-15T12:32:20.907Z,32.88
2022-11-15T12:34:47.839Z,32.75
2022-11-15T12:37:14.767Z,32.88
2022-11-15T12:39:41.665Z,33.06
2022-11-15T12:42:08.577Z,33.13
2022-11-15T12:44:35.506Z,33.19
2022-11-15T12:47:02.419Z,33.31
2022-11-15T12:49:29.333Z,33.38
2022-11-15T12:51:56.263Z,33.50
2022-11-15T12:54:23.206Z,33.56
2022-11-15T12:56:50.115Z,33.69
2022-11-15T12:59:17.006Z,33.75
2022-11-15T13:01:43.941Z,33.88
2022-11-15T13:04:10.906Z,33.88
2022-11-15T13:06:37.810Z,33.88
2022-11-15T13:09:04.795Z,33.81
2022-11-15T13:11:31.739Z,33.69
2022-11-15T13:13:58.652Z,33.56
2022-11-15T13:16:25.569Z,33.50
2022-11-15T13:18:52.468Z,33.38
2022-11-15T13:21:19.386Z,33.31
2022-11-15T13:23:46.302Z,33.31
2022-11-15T13:26:13.240Z,33.38
2022-11-15T13:28:40.181Z,33.38
2022-11-15T13:31:07.117Z,33.38
2022-11-15T13:33:36.122Z,33.44
2022-11-15T13:36:03.432Z,33.50
2022-11-15T13:38:30.648Z,33.56
2022-11-15T13:40:57.773Z,33.63
2022-11-15T13:43:24.691Z,33.69
2022-11-15T13:45:51.610Z,33.63
2022-11-15T13:48:18.547Z,33.56
2022-11-15T13:50:45.459Z,33.44
2022-11-15T13:53:12.382Z,33.31
2022-11-15T13:55:39.297Z,33.19
2022-11-15T13:58:06.216Z,33.00
2022-11-15T14:00:33.129Z,32.50
2022-11-15T14:03:00.039Z,32.44
2022-11-15T14:05:26.949Z,32.69
2022-11-15T14:07:53.862Z,32.75
2022-11-15T14:10:20.802Z,32.88
2022-11-15T14:12:47.711Z,33.00
2022-11-15T14:15:14.627Z,33.06
2022-11-15T14:17:45.659Z,33.13
2022-11-15T14:20:14.168Z,33.13
2022-11-15T14:22:41.092Z,33.06
2022-11-15T14:25:08.009Z,33.00
2022-11-15T14:27:34.911Z,32.94
2022-11-15T14:30:01.856Z,32.94
2022-11-15T14:32:28.752Z,32.94
2022-11-15T14:34:55.674Z,32.75
2022-11-15T14:37:22.586Z,32.38
2022-11-15T14:39:49.502Z,32.69
2022-11-15T14:42:16.413Z,32.88
2022-11-15T14:44:45.998Z,33.00
2022-11-15T14:47:13.250Z,33.06
2022-11-15T14:49:40.267Z,33.13
2022-11-15T14:52:07.221Z,33.25
2022-11-15T14:54:34.170Z,33.38
2022-11-15T14:57:01.083Z,33.50
2022-11-15T14:59:28.000Z,33.50
2022-11-15T15:01:54.954Z,33.44
2022-11-15T15:04:21.910Z,33.38
2022-11-15T15:06:48.919Z,33.31
2022-11-15T15:09:15.842Z,33.19
2022-11-15T15:11:42.760Z,33.06
2022-11-15T15:14:09.658Z,33.00
2022-11-15T15:16:36.646Z,33.00
2022-11-15T15:19:03.567Z,33.19
2022-11-15T15:21:36.545Z,33.31
2022-11-15T15:24:04.294Z,33.44
2022-11-15T15:26:31.201Z,33.50
2022-11-15T15:28:58.111Z,33.63
2022-11-15T15:31:25.051Z,33.75
2022-11-15T15:33:52.002Z,33.88
2022-11-15T15:36:18.934Z,34.00
2022-11-15T15:38:45.838Z,34.06
2022-11-15T15:41:12.759Z,34.19
2022-11-15T15:43:39.708Z,34.13
2022-11-15T15:46:06.615Z,34.06
2022-11-15T15:48:33.805Z,34.00
2022-11-15T15:51:00.980Z,33.88
2022-11-15T15:53:27.979Z,33.69
2022-11-15T15:55:54.878Z,33.63
2022-11-15T15:58:21.785Z,33.50
2022-11-15T16:00:48.729Z,33.31
2022-11-15T16:03:15.734Z,33.19
2022-11-15T16:05:42.701Z,33.13
2022-11-15T16:08:09.598Z,33.00
2022-11-15T16:10:36.511Z,33.06
2022-11-15T16:13:03.435Z,33.13
2022-11-15T16:15:30.340Z,33.13
2022-11-15T16:17:57.275Z,33.19
2022-11-15T16:20:24.176Z,33.19
2022-11-15T16:22:51.074Z,33.25
2022-11-15T16:25:18.010Z,33.31
2022-11-15T16:27:44.938Z,33.31
2022-11-15T16:30:11.877Z,33.31
2022-11-15T16:32:38.942Z,33.25
2022-11-15T16:35:05.870Z,33.19
2022-11-15T16:37:32.792Z,33.06
2022-11-15T16:40:01.121Z,32.94
2022-11-15T16:42:28.327Z,32.88
2022-11-15T16:44:55.240Z,32.81
2022-11-15T16:47:22.133Z,32.81
2022-11-15T16:49:49.046Z,32.81
2022-11-15T16:52:21.042Z,32.88
2022-11-15T16:54:48.376Z,32.94
2022-11-15T16:57:15.273Z,32.94
2022-11-15T16:59:42.188Z,33.00
2022-11-15T17:02:09.118Z,33.06
2022-11-15T17:04:36.018Z,33.06
2022-11-15T17:07:02.968Z,33.13
2022-11-15T17:09:29.947Z,33.13
2022-11-15T17:11:56.856Z,33.13
2022-11-15T17:14:23.755Z,33.06
2022-11-15T17:16:50.685Z,32.94
2022-11-15T17:19:17.605Z,32.88
2022-11-15T17:21:44.509Z,32.94
2022-11-15T17:24:11.491Z,32.94
2022-11-15T17:26:40.857Z,32.88
2022-11-15T17:29:08.167Z,32.63
2022-11-15T17:31:35.138Z,32.75
2022-11-15T17:34:02.043Z,32.94
2022-11-15T17:36:28.963Z,33.00
2022-11-15T17:38:59.548Z,33.19
2022-11-15T17:41:26.980Z,33.25
2022-11-15T17:43:53.890Z,33.38
2022-11-15T17:46:20.815Z,33.50
2022-11-15T17:48:47.734Z,33.63
2022-11-15T17:51:14.626Z,33.69
2022-11-15T17:53:41.529Z,33.69
2022-11-15T17:56:08.437Z,33.69
2022-11-15T17:58:35.354Z,33.63
2022-11-15T18:01:02.292Z,33.56
2022-11-15T18:03:29.410Z,33.44
2022-11-15T18:05:56.436Z,33.38
2022-11-15T18:08:23.506Z,33.31
2022-11-15T18:10:50.434Z,33.19
2022-11-15T18:13:17.425Z,33.25
2022-11-15T18:15:44.307Z,33.25
2022-11-15T18:18:11.203Z,33.31
2022-11-15T18:20:38.118Z,33.38
2022-11-15T18:23:05.041Z,33.44
2022-11-15T18:25:31.944Z,33.50
2022-11-15T18:27:58.913Z,33.50
2022-11-15T18:30:25.826Z,33.50
2022-11-15T18:32:52.716Z,33.44
2022-11-15T18:35:19.653Z,33.31
2022-11-15T18:37:46.563Z,33.19
2022-11-15T18:40:13.465Z,33.13
2022-11-15T18:42:40.398Z,33.00
2022-11-15T18:45:07.298Z,32.88
2022-11-15T18:47:34.205Z,33.00
2022-11-15T18:50:01.125Z,33.19
2022-11-15T18:52:28.067Z,33.31
2022-11-15T18:54:54.974Z,33.38
2022-11-15T18:57:21.881Z,33.44
2022-11-15T18:59:48.786Z,33.56
2022-11-15T19:02:15.690Z,33.63
2022-11-15T19:04:42.619Z,33.69
2022-11-15T19:07:09.579Z,33.69
2022-11-15T19:09:36.533Z,33.63
2022-11-15T19:12:03.434Z,33.63
2022-11-15T19:14:30.373Z,33.50
2022-11-15T19:16:57.708Z,33.44
2022-11-15T19:19:24.636Z,33.38
2022-11-15T19:21:51.594Z,33.31
2022-11-15T19:24:18.495Z,33.38
2022-11-15T19:26:45.435Z,33.38
2022-11-15T19:29:12.340Z,33.44
2022-11-15T19:31:39.266Z,33.44
2022-11-15T19:34:06.258Z,33.56
2022-11-15T19:36:33.182Z,33.69
2022-11-15T19:39:00.096Z,33.88
2022-11-15T19:41:27.008Z,34.00
2022-11-15T19:43:53.948Z,34.06
2022-11-15T19:46:20.852Z,34.13
2022-11-15T19:48:47.773Z,34.06
2022-11-15T19:51:14.683Z,34.00
2022-11-15T19:53:42.215Z,33.88
2022-11-15T19:56:09.416Z,33.81
2022-11-15T19:58:36.326Z,33.69
2022-11-15T20:01:03.370Z,33.56
2022-11-15T20:03:30.724Z,33.50
2022-11-15T20:05:57.863Z,33.31
2022-11-15T20:08:24.761Z,33.13
2022-11-15T20:10:51.692Z,32.88
2022-11-15T20:13:18.632Z,32.69
2022-11-15T20:15:45.774Z,32.44
2022-11-15T20:18:12.747Z,32.25
2022-11-15T20:20:39.690Z,32.06
2022-11-15T20:23:06.635Z,31.88
2022-11-15T20:25:33.578Z,31.63
2022-11-15T20:28:00.475Z,31.38
2022-11-15T20:30:27.384Z,31.19
2022-11-15T20:32:54.334Z,30.94
2022-11-15T20:35:21.221Z,30.75
2022-11-15T20:37:48.122Z,30.50
2022-11-15T20:40:15.044Z,30.31
2022-11-15T20:42:41.964Z,30.13
2022-11-15T20:45:08.939Z,29.94
2022-11-15T20:47:35.849Z,29.75
2022-11-15T20:50:27.567Z,29.56
2022-11-15T20:52:50.908Z,29.38
2022-11-15T20:55:17.860Z,29.25
2022-11-15T20:57:44.766Z,29.13
2022-11-15T21:00:11.670Z,28.94
2022-11-15T21:02:38.574Z,28.81
2022-11-15T21:05:05.507Z,28.69
2022-11-15T21:07:32.490Z,28.50
2022-11-15T21:09:59.454Z,28.38
2022-11-15T21:12:26.344Z,28.25
2022-11-15T21:14:53.318Z,28.06
2022-11-15T21:17:20.258Z,27.94
2022-11-15T21:19:47.154Z,27.81
2022-11-15T21:22:14.081Z,27.63
2022-11-15T21:24:40.992Z,27.50
2022-11-15T21:27:07.916Z,27.38
2022-11-15T21:29:34.935Z,27.19
2022-11-15T21:32:06.732Z,27.06
2022-11-15T21:34:34.121Z,26.94
2022-11-15T21:37:01.043Z,26.75
2022-11-15T21:39:27.977Z,26.63
2022-11-15T21:41:54.938Z,26.50
2022-11-15T21:44:21.843Z,26.38
2022-11-15T21:46:48.747Z,26.25
2022-11-15T21:49:15.646Z,26.19
2022-11-15T21:51:42.568Z,26.06
2022-11-15T21:54:09.475Z,25.94
2022-11-15T21:56:36.792Z,25.81
2022-11-15T21:59:03.717Z,25.75
2022-11-15T22:01:30.674Z,25.75
2022-11-15T22:03:57.636Z,25.75
2022-11-15T22:06:24.531Z,25.69
2022-11-15T22:08:51.504Z,25.69
2022-11-15T22:11:18.435Z,25.69
2022-11-15T22:13:45.363Z,25.63
2022-11-15T22:16:12.267Z,25.44
2022-11-15T22:18:39.448Z,25.19
2022-11-15T22:21:06.538Z,24.88
2022-11-15T22:23:33.436Z,24.50
2022-11-15T22:26:00.357Z,24.19
2022-11-15T22:28:27.286Z,23.88
2022-11-15T22:30:54.190Z,23.56
2022-11-15T22:33:21.146Z,23.31
2022-11-15T22:35:48.053Z,23.13
2022-11-15T22:38:14.962Z,23.00
2022-11-15T22:40:41.878Z,22.88
2022-11-15T22:43:08.786Z,22.75
2022-11-15T22:45:35.697Z,22.69
2022-11-15T22:48:02.615Z,22.63
2022-11-15T22:50:29.521Z,22.56
2022-11-15T22:52:56.445Z,22.50
2022-11-15T22:55:23.407Z,22.44
2022-11-15T22:57:50.309Z,22.44
2022-11-15T23:00:17.222Z,22.38
2022-11-15T23:02:44.156Z,22.31
2022-11-15T23:05:11.081Z,22.31
2022-11-15T23:07:38.050Z,22.25
2022-11-15T23:10:04.982Z,22.25
2022-11-15T23:12:31.900Z,22.19
2022-11-15T23:14:58.814Z,22.19
2022-11-15T23:17:25.706Z,22.19
2022-11-15T23:19:52.641Z,22.13
2022-11-15T23:22:19.538Z,22.13
2022-11-15T23:24:46.834Z,22.13
2022-11-15T23:27:13.750Z,22.06
2022-11-15T23:29:40.657Z,22.06
2022-11-15T23:32:07.589Z,22.06
2022-11-15T23:34:34.542Z,22.00
2022-11-15T23:37:01.453Z,22.00
2022-11-15T23:39:28.382Z,21.94
2022-11-15T23:41:55.299Z,21.94
2022-11-15T23:44:22.242Z,21.94
2022-11-15T23:46:49.149Z,21.88
2022-11-15T23:49:16.046Z,21.88
2022-11-15T23:51:42.948Z,21.88
2022-11-15T23:54:09.889Z,21.81
2022-11-15T23:56:36.801Z,21.81
2022-11-15T23:59:03.728Z,21.81
